Terminal Aerodrome Forecast
Issued by NWS

Home | Current Version | Previous Version | Text Only | Print | Product List | Glossary On
Versions: 1 2 3 4 5 6 7 8 9 10 11 12 13 14 15 16 17
000
FTUS43 KMQT 210800 AAA
TAFIWD
TAF AMD
KIWD 210821Z 2108/2206 00000KT P6SM OVC015
     FM211500 08006KT P6SM BKN025
     FM211900 10007KT P6SM SCT035
     FM220000 12003KT P6SM SKC
      AMD LTD TO CLD VIS AND WIND=

USA.gov is the U.S. government's official web portal to all federal, state and local government web resources and services.